Date,TemperatureHighF,TemperatureAvgF,TemperatureLowF,DewpointHighF,DewpointAvgF,DewpointLowF,HumidityHigh,HumidityAvg,HumidityLow,PressureMaxIn,PressureMinIn,WindSpeedMaxMPH,WindSpeedAvgMPH,GustSpeedMaxMPH,PrecipitationSumIn
2013-5-1,78,58,36,46,38,32,95,54,19,30.36,30.22,7,1,14,0.00
2013-5-2,79,60,37,47,40,35,95,54,26,30.37,30.23,8,2,16,0.00
2013-5-3,71,55,35,45,37,31,88,55,29,30.45,30.24,7,1,17,0.00
2013-5-4,76,58,36,48,37,29,100,56,18,30.30,30.09,8,2,18,0.00
2013-5-5,78,58,36,42,36,29,97,52,18,30.20,30.03,8,1,15,0.00
2013-5-6,78,58,36,42,35,16,96,52,10,30.14,29.97,7,1,16,0.00
2013-5-7,83,60,36,48,38,24,95,53,12,30.06,29.93,6,1,13,0.00
2013-5-8,77,61,42,58,50,41,99,73,34,30.10,29.95,8,2,23,0.00
2013-5-9,72,62,55,60,57,51,100,85,49,29.95,29.77,7,1,20,0.07
2013-5-10,73,60,52,62,56,52,100,88,48,29.89,29.74,6,1,12,0.00
2013-5-11,68,61,51,63,58,50,100,90,72,29.74,29.52,8,1,18,0.05
2013-5-12,62,51,40,50,42,28,100,73,38,29.68,29.50,9,2,24,0.00
2013-5-13,48,43,37,35,29,25,91,61,45,29.98,29.67,10,4,24,0.00
2013-5-14,54,42,31,38,28,19,100,66,26,30.03,29.91,7,2,21,0.02
2013-5-15,64,44,25,49,35,25,99,77,28,29.99,29.55,7,1,23,0.05
2013-5-16,72,56,44,54,42,33,100,68,25,29.78,29.50,12,3,35,0.01
2013-5-17,63,52,44,44,40,36,92,67,38,30.16,29.78,8,2,22,0.00
2013-5-18,70,54,34,46,39,32,100,63,25,30.23,30.13,5,1,13,0.00
2013-5-19,68,54,42,57,48,41,100,83,49,30.22,30.03,6,1,16,0.28
2013-5-20,68,58,52,62,57,52,100,97,74,30.03,29.89,5,0,10,0.04
2013-5-21,70,60,50,66,57,50,100,92,71,29.93,29.75,11,2,25,0.57
2013-5-22,72,61,52,68,59,51,100,93,73,29.85,29.71,6,2,16,0.43
2013-5-23,76,66,59,69,62,59,100,87,59,29.75,29.61,6,2,22,0.77
2013-5-24,62,50,44,62,50,43,100,98,94,29.91,29.57,6,2,18,0.57
2013-5-25,44,40,34,44,39,34,100,97,92,29.90,29.79,11,4,26,0.92
2013-5-26,49,41,34,42,39,34,100,91,74,30.02,29.75,7,2,20,0.22
2013-5-27,64,48,33,46,36,30,100,71,29,30.13,30.00,9,2,24,0.01
2013-5-28,72,55,32,50,40,31,100,65,27,30.18,30.03,6,1,16,0.00
2013-5-29,62,57,51,60,54,43,100,90,57,30.04,29.88,4,1,12,0.16
2013-5-30,84,68,54,67,60,54,100,81,47,29.99,29.90,7,2,22,0.01
2013-5-31,89,72,54,70,62,-100,100,76,43,30.00,29.80,6,1,16,0.00